sensor_id;sensor_type;location;lat;lon;timestamp;pressure;altitude;pressure_sealevel;temperature;humidity
68456;BME280;55437;55.046;38.838;2024-03-17T00:01:44;100364.81;;;0.53;63.02
68456;BME280;55437;55.046;38.838;2024-03-17T00:04:12;100362.19;;;0.49;63.40
68456;BME280;55437;55.046;38.838;2024-03-17T00:06:38;100363.78;;;0.42;63.29
68456;BME280;55437;55.046;38.838;2024-03-17T00:09:05;100356.13;;;0.36;63.60
68456;BME280;55437;55.046;38.838;2024-03-17T00:11:33;100367.91;;;0.35;63.91
68456;BME280;55437;55.046;38.838;2024-03-17T00:14:06;100360.31;;;0.37;63.85
68456;BME280;55437;55.046;38.838;2024-03-17T00:16:37;100358.59;;;0.34;63.71
68456;BME280;55437;55.046;38.838;2024-03-17T00:19:30;100356.13;;;0.36;63.71
68456;BME280;55437;55.046;38.838;2024-03-17T00:22:00;100346.00;;;0.36;63.89
68456;BME280;55437;55.046;38.838;2024-03-17T00:24:27;100346.06;;;0.41;63.65
68456;BME280;55437;55.046;38.838;2024-03-17T00:27:03;100341.84;;;0.40;63.42
68456;BME280;55437;55.046;38.838;2024-03-17T00:29:30;100340.97;;;0.38;63.59
68456;BME280;55437;55.046;38.838;2024-03-17T00:31:57;100346.84;;;0.35;63.65
68456;BME280;55437;55.046;38.838;2024-03-17T00:34:23;100345.94;;;0.33;63.81
68456;BME280;55437;55.046;38.838;2024-03-17T00:37:15;100334.91;;;0.28;63.83
68456;BME280;55437;55.046;38.838;2024-03-17T00:39:42;100333.19;;;0.27;63.99
68456;BME280;55437;55.046;38.838;2024-03-17T00:42:34;100332.38;;;0.28;64.10
68456;BME280;55437;55.046;38.838;2024-03-17T00:45:01;100335.72;;;0.27;63.95
68456;BME280;55437;55.046;38.838;2024-03-17T00:47:55;100330.59;;;0.21;63.99
68456;BME280;55437;55.046;38.838;2024-03-17T00:50:21;100327.09;;;0.14;64.36
68456;BME280;55437;55.046;38.838;2024-03-17T00:52:47;100322.88;;;0.15;64.45
68456;BME280;55437;55.046;38.838;2024-03-17T00:55:14;100324.63;;;0.17;64.40
68456;BME280;55437;55.046;38.838;2024-03-17T00:57:41;100323.81;;;0.18;64.42
68456;BME280;55437;55.046;38.838;2024-03-17T01:00:08;100322.09;;;0.17;64.34
68456;BME280;55437;55.046;38.838;2024-03-17T01:02:44;100317.03;;;0.17;64.41
68456;BME280;55437;55.046;38.838;2024-03-17T01:05:11;100317.03;;;0.17;64.29
68456;BME280;55437;55.046;38.838;2024-03-17T01:07:44;100319.53;;;0.16;64.15
68456;BME280;55437;55.046;38.838;2024-03-17T01:10:11;100311.91;;;0.11;64.22
68456;BME280;55437;55.046;38.838;2024-03-17T01:12:37;100319.44;;;0.10;64.22
68456;BME280;55437;55.046;38.838;2024-03-17T01:15:05;100319.47;;;0.11;64.25
68456;BME280;55437;55.046;38.838;2024-03-17T01:17:32;100325.50;;;0.19;63.74
68456;BME280;55437;55.046;38.838;2024-03-17T01:19:58;100315.41;;;0.19;63.54
68456;BME280;55437;55.046;38.838;2024-03-17T01:22:25;100315.38;;;0.18;63.77
68456;BME280;55437;55.046;38.838;2024-03-17T01:24:52;100316.97;;;0.11;63.83
68456;BME280;55437;55.046;38.838;2024-03-17T01:27:18;100311.84;;;0.08;63.48
68456;BME280;55437;55.046;38.838;2024-03-17T01:29:44;100311.91;;;0.13;63.51
68456;BME280;55437;55.046;38.838;2024-03-17T01:32:13;100311.91;;;0.13;63.67
68456;BME280;55437;55.046;38.838;2024-03-17T01:34:40;100316.25;;;0.20;63.14
68456;BME280;55437;55.046;38.838;2024-03-17T01:37:06;100313.78;;;0.24;62.80
68456;BME280;55437;55.046;38.838;2024-03-17T01:39:32;100312.09;;;0.22;62.97
68456;BME280;55437;55.046;38.838;2024-03-17T01:42:24;100312.91;;;0.21;62.87
68456;BME280;55437;55.046;38.838;2024-03-17T01:44:51;100312.75;;;0.13;62.54
68456;BME280;55437;55.046;38.838;2024-03-17T01:47:18;100316.03;;;0.08;62.99
68456;BME280;55437;55.046;38.838;2024-03-17T01:49:48;100308.38;;;0.03;63.03
68456;BME280;55437;55.046;38.838;2024-03-17T01:52:16;100305.78;;;-0.02;63.23
68456;BME280;55437;55.046;38.838;2024-03-17T01:54:43;100302.38;;;-0.04;63.61
68456;BME280;55437;55.046;38.838;2024-03-17T01:57:10;100301.53;;;-0.04;63.09
68456;BME280;55437;55.046;38.838;2024-03-17T01:59:36;100303.22;;;-0.03;63.17
68456;BME280;55437;55.046;38.838;2024-03-17T02:02:03;100299.84;;;-0.04;63.07
68456;BME280;55437;55.046;38.838;2024-03-17T02:04:30;100297.28;;;-0.07;63.14
68456;BME280;55437;55.046;38.838;2024-03-17T02:06:56;100292.97;;;-0.11;63.54
68456;BME280;55437;55.046;38.838;2024-03-17T02:09:22;100287.91;;;-0.14;63.93
68456;BME280;55437;55.046;38.838;2024-03-17T02:11:48;100290.44;;;-0.12;63.71
68456;BME280;55437;55.046;38.838;2024-03-17T02:14:19;100279.50;;;-0.11;64.13
68456;BME280;55437;55.046;38.838;2024-03-17T02:16:46;100278.66;;;-0.12;63.88
68456;BME280;55437;55.046;38.838;2024-03-17T02:19:11;100279.53;;;-0.10;64.22
68456;BME280;55437;55.046;38.838;2024-03-17T02:21:37;100275.31;;;-0.12;64.34
68456;BME280;55437;55.046;38.838;2024-03-17T02:24:05;100267.66;;;-0.17;64.23
68456;BME280;55437;55.046;38.838;2024-03-17T02:26:57;100271.09;;;-0.12;64.11
68456;BME280;55437;55.046;38.838;2024-03-17T02:29:24;100271.09;;;-0.13;64.46
68456;BME280;55437;55.046;38.838;2024-03-17T02:31:50;100273.56;;;-0.15;64.56
68456;BME280;55437;55.046;38.838;2024-03-17T02:34:16;100273.47;;;-0.19;64.19
68456;BME280;55437;55.046;38.838;2024-03-17T02:36:42;100267.59;;;-0.20;64.68
68456;BME280;55437;55.046;38.838;2024-03-17T02:39:14;100270.16;;;-0.17;64.44
68456;BME280;55437;55.046;38.838;2024-03-17T02:42:03;100269.25;;;-0.20;64.87
68456;BME280;55437;55.046;38.838;2024-03-17T02:44:31;100265.00;;;-0.23;64.69
68456;BME280;55437;55.046;38.838;2024-03-17T02:46:59;100268.41;;;-0.21;64.25
68456;BME280;55437;55.046;38.838;2024-03-17T02:49:27;100263.28;;;-0.25;64.49
68456;BME280;55437;55.046;38.838;2024-03-17T02:51:56;100262.47;;;-0.23;64.56
68456;BME280;55437;55.046;38.838;2024-03-17T02:54:23;100263.25;;;-0.27;64.57
68456;BME280;55437;55.046;38.838;2024-03-17T02:56:50;100263.28;;;-0.24;64.67
68456;BME280;55437;55.046;38.838;2024-03-17T02:59:16;100264.22;;;-0.20;64.65
68456;BME280;55437;55.046;38.838;2024-03-17T03:01:41;100262.53;;;-0.20;64.34
68456;BME280;55437;55.046;38.838;2024-03-17T03:04:27;100265.13;;;-0.17;64.35
68456;BME280;55437;55.046;38.838;2024-03-17T03:06:53;100263.47;;;-0.15;64.28
68456;BME280;55437;55.046;38.838;2024-03-17T03:09:19;100259.16;;;-0.20;64.50
68456;BME280;55437;55.046;38.838;2024-03-17T03:12:22;100262.47;;;-0.23;64.25
68456;BME280;55437;55.046;38.838;2024-03-17T03:14:49;100256.50;;;-0.28;64.43
68456;BME280;55437;55.046;38.838;2024-03-17T03:17:16;100255.56;;;-0.33;64.55
68456;BME280;55437;55.046;38.838;2024-03-17T03:19:42;100256.44;;;-0.31;64.79
68456;BME280;55437;55.046;38.838;2024-03-17T03:22:11;100259.78;;;-0.32;64.85
68456;BME280;55437;55.046;38.838;2024-03-17T03:24:37;100254.78;;;-0.30;64.38
68456;BME280;55437;55.046;38.838;2024-03-17T03:27:04;100254.03;;;-0.26;64.67
68456;BME280;55437;55.046;38.838;2024-03-17T03:29:30;100248.94;;;-0.28;64.62
68456;BME280;55437;55.046;38.838;2024-03-17T03:31:56;100251.34;;;-0.34;64.56
68456;BME280;55437;55.046;38.838;2024-03-17T03:34:24;100254.69;;;-0.35;64.51
68456;BME280;55437;55.046;38.838;2024-03-17T03:36:51;100245.44;;;-0.34;64.64
68456;BME280;55437;55.046;38.838;2024-03-17T03:39:17;100245.53;;;-0.30;64.59
68456;BME280;55437;55.046;38.838;2024-03-17T03:41:45;100241.38;;;-0.28;64.24
68456;BME280;55437;55.046;38.838;2024-03-17T03:44:11;100242.97;;;-0.31;64.56
68456;BME280;55437;55.046;38.838;2024-03-17T03:46:37;100240.44;;;-0.33;64.28
68456;BME280;55437;55.046;38.838;2024-03-17T03:49:04;100236.19;;;-0.34;64.41
68456;BME280;55437;55.046;38.838;2024-03-17T03:51:55;100236.25;;;-0.31;64.43
68456;BME280;55437;55.046;38.838;2024-03-17T03:54:21;100247.31;;;-0.26;64.18
68456;BME280;55437;55.046;38.838;2024-03-17T03:56:47;100244.03;;;-0.20;64.06
68456;BME280;55437;55.046;38.838;2024-03-17T03:59:13;100247.50;;;-0.15;64.25
68456;BME280;55437;55.046;38.838;2024-03-17T04:01:39;100234.91;;;-0.14;63.87
68456;BME280;55437;55.046;38.838;2024-03-17T04:04:05;100234.97;;;-0.09;63.97
68456;BME280;55437;55.046;38.838;2024-03-17T04:06:31;100242.72;;;0.02;63.89
68456;BME280;55437;55.046;38.838;2024-03-17T04:08:57;100239.47;;;0.09;63.44
68456;BME280;55437;55.046;38.838;2024-03-17T04:11:24;100236.34;;;0.25;63.41
68456;BME280;55437;55.046;38.838;2024-03-17T04:13:50;100236.38;;;0.26;63.14
68456;BME280;55437;55.046;38.838;2024-03-17T04:16:16;100244.13;;;0.37;63.05
68456;BME280;55437;55.046;38.838;2024-03-17T04:19:08;100241.78;;;0.49;62.76
68456;BME280;55437;55.046;38.838;2024-03-17T04:21:34;100238.47;;;0.52;62.42
68456;BME280;55437;55.046;38.838;2024-03-17T04:24:00;100237.94;;;0.71;62.33
68456;BME280;55437;55.046;38.838;2024-03-17T04:26:27;100233.97;;;0.90;62.18
68456;BME280;55437;55.046;38.838;2024-03-17T04:28:54;100233.53;;;1.24;61.41
68456;BME280;55437;55.046;38.838;2024-03-17T04:31:20;100231.41;;;1.59;60.69
68456;BME280;55437;55.046;38.838;2024-03-17T04:33:46;100242.72;;;1.90;60.06
68456;BME280;55437;55.046;38.838;2024-03-17T04:36:13;100230.25;;;2.14;59.25
68456;BME280;55437;55.046;38.838;2024-03-17T04:38:39;100228.75;;;2.36;58.97
68456;BME280;55437;55.046;38.838;2024-03-17T04:41:07;100227.16;;;2.55;58.46
68456;BME280;55437;55.046;38.838;2024-03-17T04:43:36;100229.84;;;2.79;58.05
68456;BME280;55437;55.046;38.838;2024-03-17T04:46:04;100231.69;;;3.06;57.44
68456;BME280;55437;55.046;38.838;2024-03-17T04:48:32;100225.91;;;3.36;56.69
68456;BME280;55437;55.046;38.838;2024-03-17T04:50:59;100225.97;;;3.68;55.87
68456;BME280;55437;55.046;38.838;2024-03-17T04:53:51;100226.03;;;3.95;55.20
68456;BME280;55437;55.046;38.838;2024-03-17T04:56:17;100229.44;;;4.20;54.99
68456;BME280;55437;55.046;38.838;2024-03-17T04:58:44;100228.53;;;4.47;54.38
68456;BME280;55437;55.046;38.838;2024-03-17T05:01:10;100233.63;;;4.68;53.60
68456;BME280;55437;55.046;38.838;2024-03-17T05:04:05;100224.28;;;4.80;53.29
68456;BME280;55437;55.046;38.838;2024-03-17T05:06:31;100230.16;;;5.01;53.07
68456;BME280;55437;55.046;38.838;2024-03-17T05:09:22;100225.88;;;5.11;52.49
68456;BME280;55437;55.046;38.838;2024-03-17T05:11:52;100227.56;;;5.18;52.08
68456;BME280;55437;55.046;38.838;2024-03-17T05:14:18;100232.59;;;5.29;52.03
68456;BME280;55437;55.046;38.838;2024-03-17T05:16:47;100235.94;;;5.34;51.69
68456;BME280;55437;55.046;38.838;2024-03-17T05:19:32;100236.63;;;5.69;51.32
68456;BME280;55437;55.046;38.838;2024-03-17T05:21:59;100234.84;;;5.91;50.70
68456;BME280;55437;55.046;38.838;2024-03-17T05:24:28;100240.56;;;6.19;50.04
68456;BME280;55437;55.046;38.838;2024-03-17T05:26:55;100241.19;;;6.47;49.38
68456;BME280;55437;55.046;38.838;2024-03-17T05:29:21;100229.91;;;6.71;49.11
68456;BME280;55437;55.046;38.838;2024-03-17T05:32:13;100231.78;;;7.32;48.31
68456;BME280;55437;55.046;38.838;2024-03-17T05:34:39;100228.69;;;7.73;47.28
68456;BME280;55437;55.046;38.838;2024-03-17T05:37:05;100225.50;;;8.14;46.41
68456;BME280;55437;55.046;38.838;2024-03-17T05:39:31;100231.41;;;8.17;45.56
68456;BME280;55437;55.046;38.838;2024-03-17T05:42:22;100234.00;;;8.16;45.33
68456;BME280;55437;55.046;38.838;2024-03-17T05:44:49;100240.53;;;8.35;45.50
68456;BME280;55437;55.046;38.838;2024-03-17T05:47:40;100232.59;;;8.50;44.84
68456;BME280;55437;55.046;38.838;2024-03-17T05:50:34;100235.25;;;8.93;43.98
68456;BME280;55437;55.046;38.838;2024-03-17T05:53:00;100223.00;;;9.06;43.77
68456;BME280;55437;55.046;38.838;2024-03-17T05:55:26;100231.41;;;9.14;43.50
68456;BME280;55437;55.046;38.838;2024-03-17T05:57:52;100232.97;;;9.21;43.37
68456;BME280;55437;55.046;38.838;2024-03-17T06:00:44;100239.47;;;9.37;42.58
68456;BME280;55437;55.046;38.838;2024-03-17T06:03:14;100235.22;;;9.77;42.34
68456;BME280;55437;55.046;38.838;2024-03-17T06:05:41;100230.97;;;10.13;41.66
68456;BME280;55437;55.046;38.838;2024-03-17T06:08:07;100231.91;;;10.08;41.08
68456;BME280;55437;55.046;38.838;2024-03-17T06:10:48;100226.06;;;10.39;40.73
68456;BME280;55437;55.046;38.838;2024-03-17T06:13:15;100231.59;;;10.58;40.55
68456;BME280;55437;55.046;38.838;2024-03-17T06:15:45;100227.69;;;10.75;39.97
68456;BME280;55437;55.046;38.838;2024-03-17T06:18:15;100233.16;;;10.96;39.78
68456;BME280;55437;55.046;38.838;2024-03-17T06:20:45;100224.03;;;11.15;39.30
68456;BME280;55437;55.046;38.838;2024-03-17T06:23:15;100228.84;;;11.57;38.57
68456;BME280;55437;55.046;38.838;2024-03-17T06:25:48;100228.00;;;11.56;37.96
68456;BME280;55437;55.046;38.838;2024-03-17T06:28:16;100230.59;;;11.54;37.93
68456;BME280;55437;55.046;38.838;2024-03-17T06:30:44;100223.69;;;11.57;37.72
68456;BME280;55437;55.046;38.838;2024-03-17T06:33:17;100227.59;;;11.70;37.60
68456;BME280;55437;55.046;38.838;2024-03-17T06:35:47;100226.75;;;11.97;37.19
68456;BME280;55437;55.046;38.838;2024-03-17T06:38:15;100217.25;;;11.99;36.92
68456;BME280;55437;55.046;38.838;2024-03-17T06:40:48;100221.31;;;12.06;36.46
68456;BME280;55437;55.046;38.838;2024-03-17T06:43:16;100221.13;;;11.84;36.21
68456;BME280;55437;55.046;38.838;2024-03-17T06:45:42;100213.31;;;11.87;36.04
68456;BME280;55437;55.046;38.838;2024-03-17T06:48:08;100220.38;;;12.09;35.96
68456;BME280;55437;55.046;38.838;2024-03-17T06:50:34;100217.16;;;12.29;35.85
68456;BME280;55437;55.046;38.838;2024-03-17T06:53:00;100218.84;;;12.30;35.69
68456;BME280;55437;55.046;38.838;2024-03-17T06:55:55;100217.91;;;12.06;35.49
68456;BME280;55437;55.046;38.838;2024-03-17T06:58:23;100225.31;;;11.88;35.89
68456;BME280;55437;55.046;38.838;2024-03-17T07:00:57;100223.03;;;12.32;35.48
68456;BME280;55437;55.046;38.838;2024-03-17T07:03:50;100221.13;;;12.63;35.17
68456;BME280;55437;55.046;38.838;2024-03-17T07:06:43;100223.47;;;12.70;34.70
68456;BME280;55437;55.046;38.838;2024-03-17T07:09:10;100225.91;;;12.74;34.55
68456;BME280;55437;55.046;38.838;2024-03-17T07:11:37;100227.16;;;12.87;34.22
68456;BME280;55437;55.046;38.838;2024-03-17T07:14:03;100225.41;;;13.13;34.12
68456;BME280;55437;55.046;38.838;2024-03-17T07:16:30;100228.47;;;13.24;33.63
68456;BME280;55437;55.046;38.838;2024-03-17T07:18:57;100222.22;;;13.29;33.51
68456;BME280;55437;55.046;38.838;2024-03-17T07:21:25;100216.47;;;13.23;33.72
68456;BME280;55437;55.046;38.838;2024-03-17T07:23:51;100215.91;;;13.15;33.82
68456;BME280;55437;55.046;38.838;2024-03-17T07:26:22;100218.59;;;13.35;33.65
68456;BME280;55437;55.046;38.838;2024-03-17T07:28:48;100218.44;;;13.40;33.53
68456;BME280;55437;55.046;38.838;2024-03-17T07:31:15;100210.78;;;13.60;33.24
68456;BME280;55437;55.046;38.838;2024-03-17T07:33:42;100215.50;;;13.70;33.16
68456;BME280;55437;55.046;38.838;2024-03-17T07:36:08;100215.09;;;13.59;33.04
68456;BME280;55437;55.046;38.838;2024-03-17T07:38:36;100217.97;;;13.52;33.29
68456;BME280;55437;55.046;38.838;2024-03-17T07:41:04;100214.25;;;13.59;33.15
68456;BME280;55437;55.046;38.838;2024-03-17T07:43:33;100219.47;;;13.79;33.13
68456;BME280;55437;55.046;38.838;2024-03-17T07:46:02;100218.56;;;14.02;32.58
68456;BME280;55437;55.046;38.838;2024-03-17T07:48:40;100214.19;;;14.04;32.67
68456;BME280;55437;55.046;38.838;2024-03-17T07:51:12;100211.09;;;14.16;32.60
68456;BME280;55437;55.046;38.838;2024-03-17T07:53:41;100210.06;;;14.00;32.50
68456;BME280;55437;55.046;38.838;2024-03-17T07:56:33;100204.44;;;13.45;32.91
68456;BME280;55437;55.046;38.838;2024-03-17T07:59:25;100207.00;;;12.98;33.69
68456;BME280;55437;55.046;38.838;2024-03-17T08:01:52;100207.56;;;13.07;33.87
68456;BME280;55437;55.046;38.838;2024-03-17T08:04:18;100202.69;;;13.24;33.85
68456;BME280;55437;55.046;38.838;2024-03-17T08:06:44;100208.19;;;13.13;33.70
68456;BME280;55437;55.046;38.838;2024-03-17T08:09:11;100206.09;;;13.24;33.63
68456;BME280;55437;55.046;38.838;2024-03-17T08:12:02;100203.88;;;13.14;33.38
68456;BME280;55437;55.046;38.838;2024-03-17T08:14:30;100194.41;;;13.16;33.69
68456;BME280;55437;55.046;38.838;2024-03-17T08:16:57;100199.03;;;13.05;33.63
68456;BME280;55437;55.046;38.838;2024-03-17T08:19:23;100198.56;;;12.70;34.25
68456;BME280;55437;55.046;38.838;2024-03-17T08:21:50;100190.16;;;12.40;34.52
68456;BME280;55437;55.046;38.838;2024-03-17T08:24:18;100190.69;;;12.50;34.23
68456;BME280;55437;55.046;38.838;2024-03-17T08:26:45;100194.56;;;12.37;34.66
68456;BME280;55437;55.046;38.838;2024-03-17T08:29:11;100186.16;;;11.79;35.11
68456;BME280;55437;55.046;38.838;2024-03-17T08:31:38;100182.59;;;11.55;35.72
68456;BME280;55437;55.046;38.838;2024-03-17T08:34:05;100186.94;;;11.53;36.26
68456;BME280;55437;55.046;38.838;2024-03-17T08:36:56;100188.38;;;11.34;36.02
68456;BME280;55437;55.046;38.838;2024-03-17T08:39:23;100177.66;;;10.89;36.45
68456;BME280;55437;55.046;38.838;2024-03-17T08:41:50;100184.97;;;10.39;37.83
68456;BME280;55437;55.046;38.838;2024-03-17T08:44:20;100176.16;;;10.15;38.25
68456;BME280;55437;55.046;38.838;2024-03-17T08:46:46;100186.63;;;10.06;38.55
68456;BME280;55437;55.046;38.838;2024-03-17T08:49:12;100193.06;;;9.88;38.96
68456;BME280;55437;55.046;38.838;2024-03-17T08:51:38;100193.44;;;9.71;39.05
68456;BME280;55437;55.046;38.838;2024-03-17T08:54:07;100183.53;;;9.56;39.64
68456;BME280;55437;55.046;38.838;2024-03-17T08:56:33;100188.19;;;9.39;40.19
68456;BME280;55437;55.046;38.838;2024-03-17T08:59:04;100179.28;;;9.17;40.61
68456;BME280;55437;55.046;38.838;2024-03-17T09:01:31;100176.84;;;9.09;41.07
68456;BME280;55437;55.046;38.838;2024-03-17T09:03:57;100184.09;;;9.30;41.69
68456;BME280;55437;55.046;38.838;2024-03-17T09:06:28;100186.13;;;9.55;41.66
68456;BME280;55437;55.046;38.838;2024-03-17T09:08:55;100188.41;;;9.67;41.29
68456;BME280;55437;55.046;38.838;2024-03-17T09:11:22;100188.63;;;9.58;41.10
68456;BME280;55437;55.046;38.838;2024-03-17T09:13:51;100192.31;;;9.45;41.04
68456;BME280;55437;55.046;38.838;2024-03-17T09:16:17;100184.25;;;9.23;41.41
68456;BME280;55437;55.046;38.838;2024-03-17T09:18:45;100188.31;;;8.91;41.70
68456;BME280;55437;55.046;38.838;2024-03-17T09:21:11;100187.31;;;8.55;42.48
68456;BME280;55437;55.046;38.838;2024-03-17T09:23:39;100178.53;;;8.19;42.99
68456;BME280;55437;55.046;38.838;2024-03-17T09:26:07;100180.88;;;7.79;43.83
68456;BME280;55437;55.046;38.838;2024-03-17T09:28:37;100179.53;;;7.52;44.43
68456;BME280;55437;55.046;38.838;2024-03-17T09:31:03;100169.44;;;7.46;44.71
68456;BME280;55437;55.046;38.838;2024-03-17T09:33:34;100173.72;;;7.43;44.94
68456;BME280;55437;55.046;38.838;2024-03-17T09:36:06;100166.94;;;7.42;45.07
68456;BME280;55437;55.046;38.838;2024-03-17T09:38:37;100172.91;;;7.39;44.81
68456;BME280;55437;55.046;38.838;2024-03-17T09:41:06;100173.00;;;7.35;44.96
68456;BME280;55437;55.046;38.838;2024-03-17T09:43:33;100170.50;;;7.29;45.06
68456;BME280;55437;55.046;38.838;2024-03-17T09:46:05;100165.34;;;7.35;45.22
68456;BME280;55437;55.046;38.838;2024-03-17T09:48:59;100160.13;;;7.39;45.08
68456;BME280;55437;55.046;38.838;2024-03-17T09:51:26;100164.63;;;7.23;45.54
68456;BME280;55437;55.046;38.838;2024-03-17T09:53:53;100166.41;;;7.15;45.75
68456;BME280;55437;55.046;38.838;2024-03-17T09:56:25;100165.50;;;7.22;45.63
68456;BME280;55437;55.046;38.838;2024-03-17T09:58:54;100163.94;;;7.12;45.83
68456;BME280;55437;55.046;38.838;2024-03-17T10:01:46;100163.81;;;7.21;45.95
68456;BME280;55437;55.046;38.838;2024-03-17T10:04:31;100155.16;;;7.32;45.61
68456;BME280;55437;55.046;38.838;2024-03-17T10:07:37;100155.06;;;7.38;46.21
68456;BME280;55437;55.046;38.838;2024-03-17T10:10:13;100150.34;;;7.10;46.38
68456;BME280;55437;55.046;38.838;2024-03-17T10:12:40;100156.38;;;7.02;46.57
68456;BME280;55437;55.046;38.838;2024-03-17T10:15:11;100157.25;;;7.01;46.51
68456;BME280;55437;55.046;38.838;2024-03-17T10:17:38;100156.53;;;6.90;46.56
68456;BME280;55437;55.046;38.838;2024-03-17T10:20:11;100147.22;;;6.87;46.55
68456;BME280;55437;55.046;38.838;2024-03-17T10:22:39;100144.75;;;6.79;47.05
68456;BME280;55437;55.046;38.838;2024-03-17T10:25:08;100137.09;;;6.79;47.45
68456;BME280;55437;55.046;38.838;2024-03-17T10:27:43;100136.22;;;6.82;47.05
68456;BME280;55437;55.046;38.838;2024-03-17T10:30:18;100130.25;;;6.83;47.20
68456;BME280;55437;55.046;38.838;2024-03-17T10:33:07;100131.94;;;6.82;47.35
68456;BME280;55437;55.046;38.838;2024-03-17T10:36:03;100130.13;;;6.92;47.33
68456;BME280;55437;55.046;38.838;2024-03-17T10:38:32;100130.00;;;7.01;47.32
68456;BME280;55437;55.046;38.838;2024-03-17T10:41:25;100130.06;;;6.98;47.35
68456;BME280;55437;55.046;38.838;2024-03-17T10:43:53;100123.16;;;7.05;47.35
68456;BME280;55437;55.046;38.838;2024-03-17T10:46:23;100122.25;;;7.10;47.15
68456;BME280;55437;55.046;38.838;2024-03-17T10:49:17;100125.16;;;7.44;46.80
68456;BME280;55437;55.046;38.838;2024-03-17T10:51:44;100115.00;;;7.40;46.40
68456;BME280;55437;55.046;38.838;2024-03-17T10:54:24;100115.25;;;7.23;46.93
68456;BME280;55437;55.046;38.838;2024-03-17T11:00:12;100108.56;;;7.14;47.20
68456;BME280;55437;55.046;38.838;2024-03-17T11:03:10;100112.81;;;7.14;47.11
68456;BME280;55437;55.046;38.838;2024-03-17T11:05:41;100107.84;;;7.05;47.24
68456;BME280;55437;55.046;38.838;2024-03-17T11:08:15;100109.53;;;7.04;47.43
68456;BME280;55437;55.046;38.838;2024-03-17T11:11:07;100107.69;;;7.17;47.45
68456;BME280;55437;55.046;38.838;2024-03-17T11:13:34;100110.88;;;7.31;47.80
68456;BME280;55437;55.046;38.838;2024-03-17T11:16:29;100105.09;;;7.18;47.23
68456;BME280;55437;55.046;38.838;2024-03-17T11:19:17;100108.69;;;7.05;47.36
68456;BME280;55437;55.046;38.838;2024-03-17T11:21:43;100102.88;;;6.94;47.71
68456;BME280;55437;55.046;38.838;2024-03-17T11:24:23;100102.91;;;6.91;47.89
68456;BME280;55437;55.046;38.838;2024-03-17T11:26:59;100101.91;;;7.01;47.60
68456;BME280;55437;55.046;38.838;2024-03-17T11:29:29;100099.53;;;6.89;47.66
68456;BME280;55437;55.046;38.838;2024-03-17T11:32:27;100099.56;;;6.88;47.82
68456;BME280;55437;55.046;38.838;2024-03-17T11:35:22;100106.41;;;6.84;48.04
68456;BME280;55437;55.046;38.838;2024-03-17T11:37:52;100100.28;;;6.97;48.16
68456;BME280;55437;55.046;38.838;2024-03-17T11:40:24;100093.38;;;7.04;47.99
68456;BME280;55437;55.046;38.838;2024-03-17T11:43:16;100096.88;;;6.98;47.73
68456;BME280;55437;55.046;38.838;2024-03-17T11:45:43;100097.88;;;6.86;48.00
68456;BME280;55437;55.046;38.838;2024-03-17T11:48:16;100096.28;;;6.76;48.12
68456;BME280;55437;55.046;38.838;2024-03-17T11:50:44;100093.09;;;6.61;48.64
68456;BME280;55437;55.046;38.838;2024-03-17T11:53:36;100095.81;;;6.44;48.66
68456;BME280;55437;55.046;38.838;2024-03-17T11:56:02;100095.09;;;6.34;48.75
68456;BME280;55437;55.046;38.838;2024-03-17T11:58:36;100091.72;;;6.31;48.86
68456;BME280;55437;55.046;38.838;2024-03-17T12:01:08;100092.56;;;6.31;49.02
68456;BME280;55437;55.046;38.838;2024-03-17T12:03:34;100087.44;;;6.34;49.00
68456;BME280;55437;55.046;38.838;2024-03-17T12:06:00;100091.69;;;6.35;49.48
68456;BME280;55437;55.046;38.838;2024-03-17T12:08:27;100087.44;;;6.33;49.41
68456;BME280;55437;55.046;38.838;2024-03-17T12:10:54;100089.16;;;6.31;49.29
68456;BME280;55437;55.046;38.838;2024-03-17T12:13:24;100089.19;;;6.29;49.24
68456;BME280;55437;55.046;38.838;2024-03-17T12:16:12;100095.00;;;6.40;49.43
68456;BME280;55437;55.046;38.838;2024-03-17T12:19:07;100094.13;;;6.43;49.28
68456;BME280;55437;55.046;38.838;2024-03-17T12:22:02;100088.88;;;6.57;49.15
68456;BME280;55437;55.046;38.838;2024-03-17T12:24:33;100089.56;;;6.71;49.08
68456;BME280;55437;55.046;38.838;2024-03-17T12:27:00;100093.63;;;6.87;48.98
68456;BME280;55437;55.046;38.838;2024-03-17T12:29:31;100083.09;;;7.11;48.68
68456;BME280;55437;55.046;38.838;2024-03-17T12:32:00;100084.53;;;7.28;48.02
68456;BME280;55437;55.046;38.838;2024-03-17T12:34:33;100082.53;;;7.48;47.78
68456;BME280;55437;55.046;38.838;2024-03-17T12:37:01;100078.88;;;7.63;47.16
68456;BME280;55437;55.046;38.838;2024-03-17T12:39:31;100080.50;;;7.70;47.34
68456;BME280;55437;55.046;38.838;2024-03-17T12:42:27;100076.41;;;7.58;47.11
68456;BME280;55437;55.046;38.838;2024-03-17T12:44:55;100082.47;;;7.51;47.38
68456;BME280;55437;55.046;38.838;2024-03-17T12:47:23;100079.25;;;7.40;47.59
68456;BME280;55437;55.046;38.838;2024-03-17T12:49:51;100075.06;;;7.36;47.50
68456;BME280;55437;55.046;38.838;2024-03-17T12:52:19;100075.13;;;7.31;47.56
68456;BME280;55437;55.046;38.838;2024-03-17T12:55:07;100075.19;;;7.25;47.68
68456;BME280;55437;55.046;38.838;2024-03-17T12:58:05;100069.34;;;7.18;47.75
68456;BME280;55437;55.046;38.838;2024-03-17T13:01:03;100069.41;;;7.14;47.83
68456;BME280;55437;55.046;38.838;2024-03-17T13:03:54;100071.28;;;7.03;48.28
68456;BME280;55437;55.046;38.838;2024-03-17T13:06:26;100070.41;;;7.04;48.11
68456;BME280;55437;55.046;38.838;2024-03-17T13:08:52;100064.53;;;7.00;48.46
68456;BME280;55437;55.046;38.838;2024-03-17T13:11:22;100057.78;;;6.93;48.75
68456;BME280;55437;55.046;38.838;2024-03-17T13:14:15;100066.31;;;6.92;48.84